sensor_id;sensor_type;location;lat;lon;timestamp;pressure;altitude;pressure_sealevel;temperature;humidity
75497;BME280;64074;47.540;19.072;2023-02-28T00:00:04;101685.97;;;2.53;51.73
75497;BME280;64074;47.540;19.072;2023-02-28T00:03:24;101688.66;;;2.53;52.45
75497;BME280;64074;47.540;19.072;2023-02-28T00:06:52;101688.25;;;2.43;52.97
75497;BME280;64074;47.540;19.072;2023-02-28T00:10:16;101700.81;;;2.36;51.75
75497;BME280;64074;47.540;19.072;2023-02-28T00:13:30;101703.91;;;2.13;53.12
75497;BME280;64074;47.540;19.072;2023-02-28T00:16:51;101716.25;;;2.14;53.28
75497;BME280;64074;47.540;19.072;2023-02-28T00:19:59;101712.16;;;2.25;52.60
75497;BME280;64074;47.540;19.072;2023-02-28T00:23:15;101715.66;;;2.32;51.43
75497;BME280;64074;47.540;19.072;2023-02-28T00:26:24;101720.38;;;2.30;52.04
75497;BME280;64074;47.540;19.072;2023-02-28T00:29:39;101713.41;;;2.29;51.71
75497;BME280;64074;47.540;19.072;2023-02-28T00:33:09;101714.22;;;2.29;52.98
75497;BME280;64074;47.540;19.072;2023-02-28T00:36:18;101721.84;;;2.26;52.94
75497;BME280;64074;47.540;19.072;2023-02-28T00:39:21;101723.06;;;2.30;52.74
75497;BME280;64074;47.540;19.072;2023-02-28T00:42:34;101714.19;;;2.56;52.15
75497;BME280;64074;47.540;19.072;2023-02-28T00:45:43;101728.41;;;2.56;52.38
75497;BME280;64074;47.540;19.072;2023-02-28T00:48:49;101723.44;;;2.66;51.54
75497;BME280;64074;47.540;19.072;2023-02-28T00:51:54;101720.13;;;2.71;52.02
75497;BME280;64074;47.540;19.072;2023-02-28T00:55:08;101726.50;;;2.76;51.20
75497;BME280;64074;47.540;19.072;2023-02-28T00:58:18;101728.16;;;2.77;49.70
75497;BME280;64074;47.540;19.072;2023-02-28T01:01:39;101726.69;;;2.82;51.26
75497;BME280;64074;47.540;19.072;2023-02-28T01:04:43;101736.16;;;2.91;50.57
75497;BME280;64074;47.540;19.072;2023-02-28T01:07:48;101731.59;;;2.91;48.83
75497;BME280;64074;47.540;19.072;2023-02-28T01:10:57;101738.63;;;2.99;48.63
75497;BME280;64074;47.540;19.072;2023-02-28T01:14:29;101731.78;;;3.03;48.82
75497;BME280;64074;47.540;19.072;2023-02-28T01:17:40;101731.78;;;3.03;49.38
75497;BME280;64074;47.540;19.072;2023-02-28T01:20:49;101729.50;;;3.06;49.63
75497;BME280;64074;47.540;19.072;2023-02-28T01:24:02;101726.47;;;2.90;50.65
75497;BME280;64074;47.540;19.072;2023-02-28T01:27:11;101732.00;;;2.95;51.66
75497;BME280;64074;47.540;19.072;2023-02-28T01:30:25;101729.75;;;2.92;51.84
75497;BME280;64074;47.540;19.072;2023-02-28T01:33:44;101733.31;;;2.79;52.63
75497;BME280;64074;47.540;19.072;2023-02-28T01:37:08;101734.75;;;2.75;53.04
75497;BME280;64074;47.540;19.072;2023-02-28T01:40:26;101736.00;;;2.66;52.39
75497;BME280;64074;47.540;19.072;2023-02-28T01:44:04;101729.38;;;2.68;52.49
75497;BME280;64074;47.540;19.072;2023-02-28T01:47:17;101738.44;;;2.87;51.04
75497;BME280;64074;47.540;19.072;2023-02-28T01:50:36;101736.38;;;2.83;51.73
75497;BME280;64074;47.540;19.072;2023-02-28T01:53:57;101725.69;;;2.69;53.14
75497;BME280;64074;47.540;19.072;2023-02-28T01:57:21;101734.16;;;2.53;53.54
75497;BME280;64074;47.540;19.072;2023-02-28T02:00:30;101729.00;;;2.65;53.37
75497;BME280;64074;47.540;19.072;2023-02-28T02:03:35;101731.84;;;2.70;54.07
75497;BME280;64074;47.540;19.072;2023-02-28T02:06:46;101732.50;;;2.59;55.02
75497;BME280;64074;47.540;19.072;2023-02-28T02:10:12;101736.22;;;2.51;54.57
75497;BME280;64074;47.540;19.072;2023-02-28T02:17:32;101726.53;;;2.57;54.02
75497;BME280;64074;47.540;19.072;2023-02-28T02:21:07;101724.25;;;2.60;53.55
75497;BME280;64074;47.540;19.072;2023-02-28T02:24:52;101724.88;;;2.75;53.08
75497;BME280;64074;47.540;19.072;2023-02-28T02:45:24;101719.06;;;2.85;52.80
75497;BME280;64074;47.540;19.072;2023-02-28T02:48:47;101723.84;;;2.76;52.98
75497;BME280;64074;47.540;19.072;2023-02-28T02:52:08;101724.25;;;2.73;52.81
75497;BME280;64074;47.540;19.072;2023-02-28T02:55:28;101719.09;;;2.72;52.54
75497;BME280;64074;47.540;19.072;2023-02-28T02:58:37;101726.72;;;2.75;53.18
75497;BME280;64074;47.540;19.072;2023-02-28T03:01:59;101724.88;;;2.62;52.63
75497;BME280;64074;47.540;19.072;2023-02-28T03:05:42;101719.72;;;2.61;53.53
75497;BME280;64074;47.540;19.072;2023-02-28T03:09:03;101720.53;;;2.81;53.36
75497;BME280;64074;47.540;19.072;2023-02-28T03:12:14;101724.66;;;2.64;53.26
75497;BME280;64074;47.540;19.072;2023-02-28T03:15:20;101732.88;;;2.69;53.91
75497;BME280;64074;47.540;19.072;2023-02-28T03:22:04;101731.47;;;2.73;53.57
75497;BME280;64074;47.540;19.072;2023-02-28T03:25:59;101739.25;;;2.88;53.62
75497;BME280;64074;47.540;19.072;2023-02-28T03:29:27;101739.88;;;2.83;53.08
75497;BME280;64074;47.540;19.072;2023-02-28T03:32:58;101737.66;;;2.73;52.81
75497;BME280;64074;47.540;19.072;2023-02-28T03:36:17;101735.38;;;2.77;52.71
75497;BME280;64074;47.540;19.072;2023-02-28T03:39:36;101735.34;;;2.84;52.66
75497;BME280;64074;47.540;19.072;2023-02-28T03:42:51;101735.28;;;2.97;51.65
75497;BME280;64074;47.540;19.072;2023-02-28T03:46:08;101733.25;;;2.92;51.89
75497;BME280;64074;47.540;19.072;2023-02-28T03:49:23;101731.19;;;3.01;51.60
75497;BME280;64074;47.540;19.072;2023-02-28T03:53:02;101734.69;;;2.95;50.82
75497;BME280;64074;47.540;19.072;2023-02-28T03:57:01;101729.94;;;2.97;50.15
75497;BME280;64074;47.540;19.072;2023-02-28T04:00:33;101734.91;;;2.87;51.04
75497;BME280;64074;47.540;19.072;2023-02-28T04:03:44;101733.84;;;3.07;49.36
75497;BME280;64074;47.540;19.072;2023-02-28T04:07:11;101737.97;;;3.03;49.15
75497;BME280;64074;47.540;19.072;2023-02-28T04:10:31;101728.69;;;3.06;49.53
75497;BME280;64074;47.540;19.072;2023-02-28T04:13:41;101727.28;;;2.90;48.41
75497;BME280;64074;47.540;19.072;2023-02-28T04:17:16;101728.50;;;2.94;48.60
75497;BME280;64074;47.540;19.072;2023-02-28T04:20:38;101730.78;;;2.91;48.67
75497;BME280;64074;47.540;19.072;2023-02-28T04:24:01;101723.00;;;2.83;48.67
75497;BME280;64074;47.540;19.072;2023-02-28T04:27:21;101722.97;;;2.89;47.88
75497;BME280;64074;47.540;19.072;2023-02-28T04:30:44;101718.00;;;2.93;47.65
75497;BME280;64074;47.540;19.072;2023-02-28T04:34:06;101719.84;;;2.92;47.57
75497;BME280;64074;47.540;19.072;2023-02-28T04:37:22;101716.94;;;3.07;47.88
75497;BME280;64074;47.540;19.072;2023-02-28T04:40:38;101711.59;;;3.07;48.00
75497;BME280;64074;47.540;19.072;2023-02-28T04:44:11;101716.47;;;3.17;48.14
75497;BME280;64074;47.540;19.072;2023-02-28T04:47:27;101710.69;;;3.20;48.72
75497;BME280;64074;47.540;19.072;2023-02-28T04:50:31;101712.53;;;3.26;48.12
75497;BME280;64074;47.540;19.072;2023-02-28T04:53:41;101710.47;;;3.21;48.54
75497;BME280;64074;47.540;19.072;2023-02-28T04:56:47;101716.47;;;3.23;48.39
75497;BME280;64074;47.540;19.072;2023-02-28T04:59:54;101713.38;;;3.20;48.16
75497;BME280;64074;47.540;19.072;2023-02-28T05:03:01;101714.00;;;3.15;47.57
75497;BME280;64074;47.540;19.072;2023-02-28T05:06:13;101712.44;;;3.01;47.90
75497;BME280;64074;47.540;19.072;2023-02-28T05:09:21;101716.72;;;3.08;47.61
75497;BME280;64074;47.540;19.072;2023-02-28T05:12:27;101721.91;;;3.03;47.64
75497;BME280;64074;47.540;19.072;2023-02-28T05:15:40;101724.97;;;3.07;47.82
75497;BME280;64074;47.540;19.072;2023-02-28T05:18:53;101722.72;;;2.97;47.66
75497;BME280;64074;47.540;19.072;2023-02-28T05:22:14;101734.06;;;2.99;48.22
75497;BME280;64074;47.540;19.072;2023-02-28T05:25:27;101732.22;;;2.93;47.95
75497;BME280;64074;47.540;19.072;2023-02-28T05:28:52;101736.34;;;3.02;47.65
75497;BME280;64074;47.540;19.072;2023-02-28T05:32:14;101732.06;;;2.82;47.38
75497;BME280;64074;47.540;19.072;2023-02-28T05:35:39;101733.72;;;2.76;47.28
75497;BME280;64074;47.540;19.072;2023-02-28T05:38:55;101734.91;;;3.00;48.47
75497;BME280;64074;47.540;19.072;2023-02-28T05:42:23;101737.13;;;3.09;47.91
75497;BME280;64074;47.540;19.072;2023-02-28T05:45:33;101745.56;;;3.13;47.73
75497;BME280;64074;47.540;19.072;2023-02-28T05:48:38;101744.34;;;3.09;47.02
75497;BME280;64074;47.540;19.072;2023-02-28T05:51:42;101741.91;;;2.94;47.13
75497;BME280;64074;47.540;19.072;2023-02-28T05:54:51;101745.56;;;3.13;47.27
75497;BME280;64074;47.540;19.072;2023-02-28T05:58:22;101752.41;;;3.02;47.21
75497;BME280;64074;47.540;19.072;2023-02-28T06:01:46;101750.50;;;3.23;47.13
75497;BME280;64074;47.540;19.072;2023-02-28T06:05:07;101752.50;;;3.34;45.92
75497;BME280;64074;47.540;19.072;2023-02-28T06:08:25;101754.56;;;3.32;47.07
75497;BME280;64074;47.540;19.072;2023-02-28T06:11:45;101759.16;;;3.18;47.25
75497;BME280;64074;47.540;19.072;2023-02-28T06:15:05;101766.56;;;3.16;47.09
75497;BME280;64074;47.540;19.072;2023-02-28T06:23:44;101765.97;;;3.14;47.51
75497;BME280;64074;47.540;19.072;2023-02-28T06:26:54;101765.94;;;3.21;47.63
75497;BME280;64074;47.540;19.072;2023-02-28T06:30:21;101768.47;;;3.09;48.62
75497;BME280;64074;47.540;19.072;2023-02-28T06:33:38;101771.72;;;3.18;48.08
75497;BME280;64074;47.540;19.072;2023-02-28T06:36:46;101771.03;;;3.35;47.84
75497;BME280;64074;47.540;19.072;2023-02-28T06:39:54;101767.91;;;3.45;47.13
75497;BME280;64074;47.540;19.072;2023-02-28T06:43:10;101769.41;;;3.34;46.48
75497;BME280;64074;47.540;19.072;2023-02-28T06:46:25;101775.50;;;3.55;46.52
75497;BME280;64074;47.540;19.072;2023-02-28T06:49:44;101778.97;;;3.62;45.91
75497;BME280;64074;47.540;19.072;2023-02-28T06:53:07;101782.47;;;3.62;46.02
75497;BME280;64074;47.540;19.072;2023-02-28T06:56:18;101781.13;;;3.85;44.93
75497;BME280;64074;47.540;19.072;2023-02-28T06:59:29;101777.28;;;4.06;44.84
75497;BME280;64074;47.540;19.072;2023-02-28T07:03:06;101778.44;;;4.16;44.92
75497;BME280;64074;47.540;19.072;2023-02-28T07:06:20;101776.50;;;4.30;44.31
75497;BME280;64074;47.540;19.072;2023-02-28T07:09:31;101786.41;;;4.29;44.02
75497;BME280;64074;47.540;19.072;2023-02-28T07:12:49;101783.94;;;4.28;43.95
75497;BME280;64074;47.540;19.072;2023-02-28T07:16:27;101795.50;;;4.28;44.01
75497;BME280;64074;47.540;19.072;2023-02-28T07:19:52;101790.38;;;4.27;43.84
75497;BME280;64074;47.540;19.072;2023-02-28T07:23:14;101793.22;;;4.57;43.53
75497;BME280;64074;47.540;19.072;2023-02-28T07:26:35;101801.06;;;4.58;43.60
75497;BME280;64074;47.540;19.072;2023-02-28T07:34:42;101805.50;;;4.46;43.43
75497;BME280;64074;47.540;19.072;2023-02-28T07:42:16;101800.94;;;4.22;43.18
75497;BME280;64074;47.540;19.072;2023-02-28T07:45:20;101805.75;;;4.38;43.15
75497;BME280;64074;47.540;19.072;2023-02-28T07:53:17;101809.84;;;4.47;42.99
75497;BME280;64074;47.540;19.072;2023-02-28T07:56:57;101811.19;;;4.56;42.61
75497;BME280;64074;47.540;19.072;2023-02-28T08:00:09;101812.94;;;4.44;42.96
75497;BME280;64074;47.540;19.072;2023-02-28T08:07:36;101799.19;;;4.84;42.70
75497;BME280;64074;47.540;19.072;2023-02-28T08:10:49;101794.41;;;4.86;42.24
75497;BME280;64074;47.540;19.072;2023-02-28T08:13:55;101800.72;;;4.98;41.87
75497;BME280;64074;47.540;19.072;2023-02-28T08:17:04;101803.97;;;4.57;41.71
75497;BME280;64074;47.540;19.072;2023-02-28T08:20:50;101800.31;;;4.94;41.60
75497;BME280;64074;47.540;19.072;2023-02-28T08:24:04;101800.06;;;4.53;41.92
75497;BME280;64074;47.540;19.072;2023-02-28T08:27:18;101804.94;;;4.62;41.64
75497;BME280;64074;47.540;19.072;2023-02-28T08:30:31;101798.41;;;5.02;40.85
75497;BME280;64074;47.540;19.072;2023-02-28T08:33:54;101794.88;;;5.19;41.69
75497;BME280;64074;47.540;19.072;2023-02-28T08:37:09;101798.84;;;5.17;41.48
75497;BME280;64074;47.540;19.072;2023-02-28T08:41:03;101793.84;;;5.20;41.08
75497;BME280;64074;47.540;19.072;2023-02-28T08:44:42;101794.03;;;4.82;42.57
75497;BME280;64074;47.540;19.072;2023-02-28T08:47:48;101792.78;;;5.03;41.70
75497;BME280;64074;47.540;19.072;2023-02-28T08:51:28;101800.06;;;4.78;42.00
75497;BME280;64074;47.540;19.072;2023-02-28T08:55:22;101799.34;;;4.64;41.72
75497;BME280;64074;47.540;19.072;2023-02-28T08:58:29;101794.69;;;4.78;41.63
75497;BME280;64074;47.540;19.072;2023-02-28T09:02:16;101792.72;;;5.10;41.49
75497;BME280;64074;47.540;19.072;2023-02-28T09:05:56;101791.97;;;5.03;41.43
75497;BME280;64074;47.540;19.072;2023-02-28T09:09:08;101792.75;;;4.85;42.00
75497;BME280;64074;47.540;19.072;2023-02-28T09:12:26;101789.56;;;4.94;41.68
75497;BME280;64074;47.540;19.072;2023-02-28T09:15:58;101796.25;;;5.47;40.55
75497;BME280;64074;47.540;19.072;2023-02-28T09:19:15;101805.28;;;5.52;40.71
75497;BME280;64074;47.540;19.072;2023-02-28T09:22:18;101794.59;;;5.46;41.17
75497;BME280;64074;47.540;19.072;2023-02-28T09:25:25;101796.38;;;5.70;40.49
75497;BME280;64074;47.540;19.072;2023-02-28T09:28:35;101799.00;;;5.88;40.30
75497;BME280;64074;47.540;19.072;2023-02-28T09:31:49;101795.34;;;5.83;40.25
75497;BME280;64074;47.540;19.072;2023-02-28T09:44:01;101806.19;;;6.25;39.44
75497;BME280;64074;47.540;19.072;2023-02-28T09:47:29;101806.06;;;6.31;39.08
75497;BME280;64074;47.540;19.072;2023-02-28T09:51:49;101796.31;;;6.72;39.39
75497;BME280;64074;47.540;19.072;2023-02-28T10:00:10;101798.63;;;7.27;38.22
75497;BME280;64074;47.540;19.072;2023-02-28T10:08:06;101797.47;;;6.99;37.79
75497;BME280;64074;47.540;19.072;2023-02-28T10:11:42;101791.50;;;6.97;38.18
75497;BME280;64074;47.540;19.072;2023-02-28T10:14:51;101791.25;;;7.22;37.60
75497;BME280;64074;47.540;19.072;2023-02-28T10:22:20;101791.25;;;7.22;37.34
75497;BME280;64074;47.540;19.072;2023-02-28T10:25:54;101781.03;;;7.13;37.44
75497;BME280;64074;47.540;19.072;2023-02-28T10:29:07;101780.69;;;7.09;38.51
75497;BME280;64074;47.540;19.072;2023-02-28T10:32:25;101775.91;;;6.99;38.77
75497;BME280;64074;47.540;19.072;2023-02-28T10:40:34;101770.25;;;6.31;40.07
75497;BME280;64074;47.540;19.072;2023-02-28T10:44:23;101755.75;;;6.55;38.82
75497;BME280;64074;47.540;19.072;2023-02-28T10:52:00;101750.59;;;6.65;39.53
75497;BME280;64074;47.540;19.072;2023-02-28T11:00:24;101740.53;;;6.72;39.15
75497;BME280;64074;47.540;19.072;2023-02-28T11:03:41;101744.38;;;6.76;38.98
75497;BME280;64074;47.540;19.072;2023-02-28T11:11:04;101741.47;;;6.78;40.13
75497;BME280;64074;47.540;19.072;2023-02-28T11:14:22;101742.31;;;7.19;39.13
75497;BME280;64074;47.540;19.072;2023-02-28T11:17:38;101740.47;;;7.19;38.80
75497;BME280;64074;47.540;19.072;2023-02-28T11:21:05;101738.63;;;7.77;38.49
75497;BME280;64074;47.540;19.072;2023-02-28T11:24:44;101748.38;;;8.40;37.92
75497;BME280;64074;47.540;19.072;2023-02-28T11:27:56;101738.34;;;8.74;37.60
75497;BME280;64074;47.540;19.072;2023-02-28T11:34:31;101735.47;;;8.80;37.09
75497;BME280;64074;47.540;19.072;2023-02-28T11:37:44;101730.44;;;8.50;37.75
75497;BME280;64074;47.540;19.072;2023-02-28T12:04:52;101717.19;;;8.49;38.90
75497;BME280;64074;47.540;19.072;2023-02-28T12:08:22;101699.47;;;8.41;38.55
75497;BME280;64074;47.540;19.072;2023-02-28T12:16:24;101704.88;;;8.58;37.75
75497;BME280;64074;47.540;19.072;2023-02-28T12:26:47;101690.66;;;9.06;36.43
75497;BME280;64074;47.540;19.072;2023-02-28T12:30:30;101684.63;;;9.21;36.71
75497;BME280;64074;47.540;19.072;2023-02-28T12:33:42;101672.38;;;8.36;37.59
75497;BME280;64074;47.540;19.072;2023-02-28T12:45:57;101665.91;;;8.20;39.03
75497;BME280;64074;47.540;19.072;2023-02-28T12:49:32;101668.44;;;8.27;38.93
75497;BME280;64074;47.540;19.072;2023-02-28T13:00:03;101656.47;;;9.76;37.23
75497;BME280;64074;47.540;19.072;2023-02-28T13:11:24;101664.03;;;10.06;36.48
75497;BME280;64074;47.540;19.072;2023-02-28T13:21:51;101653.47;;;9.18;37.94
75497;BME280;64074;47.540;19.072;2023-02-28T13:35:36;101648.94;;;9.51;37.41
75497;BME280;64074;47.540;19.072;2023-02-28T13:38:56;101641.53;;;10.05;36.73
75497;BME280;64074;47.540;19.072;2023-02-28T13:45:34;101631.25;;;9.70;37.73
75497;BME280;64074;47.540;19.072;2023-02-28T13:48:50;101629.59;;;10.38;36.50
75497;BME280;64074;47.540;19.072;2023-02-28T13:52:22;101631.53;;;10.43;36.30
75497;BME280;64074;47.540;19.072;2023-02-28T14:03:49;101624.94;;;10.29;36.60
75497;BME280;64074;47.540;19.072;2023-02-28T14:07:40;101614.84;;;9.87;36.83
75497;BME280;64074;47.540;19.072;2023-02-28T14:10:48;101613.88;;;9.98;36.92
75497;BME280;64074;47.540;19.072;2023-02-28T14:13:53;101609.03;;;10.05;37.00
75497;BME280;64074;47.540;19.072;2023-02-28T14:16:56;101605.56;;;9.78;37.60
75497;BME280;64074;47.540;19.072;2023-02-28T14:20:03;101610.81;;;9.04;38.65
75497;BME280;64074;47.540;19.072;2023-02-28T14:23:30;101610.72;;;8.93;38.81
75497;BME280;64074;47.540;19.072;2023-02-28T14:33:47;101601.91;;;9.30;38.11
75497;BME280;64074;47.540;19.072;2023-02-28T14:36:58;101600.03;;;9.36;38.42
75497;BME280;64074;47.540;19.072;2023-02-28T14:40:33;101607.78;;;9.22;38.29
75497;BME280;64074;47.540;19.072;2023-02-28T14:43:57;101611.13;;;8.85;38.98
75497;BME280;64074;47.540;19.072;2023-02-28T14:47:03;101601.41;;;9.11;39.17
75497;BME280;64074;47.540;19.072;2023-02-28T14:50:21;101607.66;;;8.90;39.42
75497;BME280;64074;47.540;19.072;2023-02-28T14:53:28;101600.88;;;8.66;39.60
75497;BME280;64074;47.540;19.072;2023-02-28T14:56:40;101599.56;;;8.46;40.50
75497;BME280;64074;47.540;19.072;2023-02-28T15:00:09;101601.03;;;8.76;39.43
75497;BME280;64074;47.540;19.072;2023-02-28T15:03:27;101600.56;;;8.62;40.16
75497;BME280;64074;47.540;19.072;2023-02-28T15:06:32;101603.69;;;8.71;40.18
75497;BME280;64074;47.540;19.072;2023-02-28T15:09:36;101607.75;;;8.95;40.14
75497;BME280;64074;47.540;19.072;2023-02-28T15:12:40;101606.84;;;9.11;39.89
75497;BME280;64074;47.540;19.072;2023-02-28T15:19:11;101607.25;;;8.54;40.17
75497;BME280;64074;47.540;19.072;2023-02-28T15:22:20;101611.38;;;8.23;41.47
75497;BME280;64074;47.540;19.072;2023-02-28T15:25:26;101612.50;;;8.66;40.84
75497;BME280;64074;47.540;19.072;2023-02-28T15:28:30;101613.50;;;8.38;41.15
75497;BME280;64074;47.540;19.072;2023-02-28T15:32:00;101609.06;;;8.32;41.66
75497;BME280;64074;47.540;19.072;2023-02-28T15:38:27;101599.00;;;8.27;41.55
75497;BME280;64074;47.540;19.072;2023-02-28T15:41:36;101603.22;;;8.01;42.01
75497;BME280;64074;47.540;19.072;2023-02-28T15:44:43;101605.09;;;8.01;42.45
75497;BME280;64074;47.540;19.072;2023-02-28T15:47:46;101600.50;;;7.68;43.69
75497;BME280;64074;47.540;19.072;2023-02-28T15:51:01;101604.28;;;7.50;44.05
75497;BME280;64074;47.540;19.072;2023-02-28T15:54:06;101600.44;;;7.63;44.14
75497;BME280;64074;47.540;19.072;2023-02-28T15:57:18;101597.75;;;7.18;45.22
75497;BME280;64074;47.540;19.072;2023-02-28T16:00:24;101598.59;;;7.35;44.98
75497;BME280;64074;47.540;19.072;2023-02-28T16:03:38;101597.66;;;7.58;44.71
75497;BME280;64074;47.540;19.072;2023-02-28T16:06:59;101599.25;;;7.42;45.39
75497;BME280;64074;47.540;19.072;2023-02-28T16:10:05;101606.16;;;6.93;46.31
75497;BME280;64074;47.540;19.072;2023-02-28T16:13:12;101610.97;;;6.91;46.54
75497;BME280;64074;47.540;19.072;2023-02-28T16:16:19;101610.63;;;6.99;46.41
75497;BME280;64074;47.540;19.072;2023-02-28T16:19:23;101618.13;;;7.25;45.92
75497;BME280;64074;47.540;19.072;2023-02-28T16:22:27;101618.84;;;7.49;45.40
75497;BME280;64074;47.540;19.072;2023-02-28T16:25:36;101612.84;;;7.19;45.97
75497;BME280;64074;47.540;19.072;2023-02-28T16:28:40;101612.00;;;7.01;46.28
75497;BME280;64074;47.540;19.072;2023-02-28T16:31:43;101614.31;;;7.09;46.17
75497;BME280;64074;47.540;19.072;2023-02-28T16:34:46;101629.31;;;6.65;47.09
75497;BME280;64074;47.540;19.072;2023-02-28T16:37:51;101628.06;;;6.56;47.56
75497;BME280;64074;47.540;19.072;2023-02-28T16:40:59;101635.19;;;6.62;47.66
75497;BME280;64074;47.540;19.072;2023-02-28T16:44:10;101632.81;;;6.77;47.56
75497;BME280;64074;47.540;19.072;2023-02-28T16:47:16;101629.28;;;7.17;46.66
75497;BME280;64074;47.540;19.072;2023-02-28T16:50:22;101627.66;;;7.16;46.27
75497;BME280;64074;47.540;19.072;2023-02-28T16:53:26;101634.16;;;7.03;47.11
75497;BME280;64074;47.540;19.072;2023-02-28T16:56:29;101640.06;;;6.89;47.47
75497;BME280;64074;47.540;19.072;2023-02-28T16:59:35;101641.84;;;6.83;47.59
75497;BME280;64074;47.540;19.072;2023-02-28T17:02:38;101647.06;;;6.90;47.27
75497;BME280;64074;47.540;19.072;2023-02-28T17:05:44;101647.66;;;6.92;48.03
75497;BME280;64074;47.540;19.072;2023-02-28T17:08:51;101648.72;;;6.91;47.83
75497;BME280;64074;47.540;19.072;2023-02-28T17:11:54;101658.25;;;6.82;48.40
75497;BME280;64074;47.540;19.072;2023-02-28T17:14:58;101654.09;;;7.02;47.87
75497;BME280;64074;47.540;19.072;2023-02-28T17:18:02;101654.38;;;6.77;48.72
75497;BME280;64074;47.540;19.072;2023-02-28T17:21:13;101651.34;;;6.74;49.40
75497;BME280;64074;47.540;19.072;2023-02-28T17:24:16;101652.53;;;6.55;50.19
75497;BME280;64074;47.540;19.072;2023-02-28T17:27:31;101655.13;;;6.38;50.70
75497;BME280;64074;47.540;19.072;2023-02-28T17:30:34;101651.72;;;6.42;50.73
75497;BME280;64074;47.540;19.072;2023-02-28T17:33:38;101655.38;;;6.48;50.95
75497;BME280;64074;47.540;19.072;2023-02-28T17:36:41;101660.50;;;6.38;50.79
75497;BME280;64074;47.540;19.072;2023-02-28T17:39:43;101656.66;;;6.22;51.64
75497;BME280;64074;47.540;19.072;2023-02-28T17:42:46;101662.50;;;6.31;51.42
75497;BME280;64074;47.540;19.072;2023-02-28T17:45:49;101659.72;;;6.26;51.34
75497;BME280;64074;47.540;19.072;2023-02-28T17:48:53;101652.34;;;6.44;51.29
75497;BME280;64074;47.540;19.072;2023-02-28T17:51:56;101661.06;;;6.63;50.73
75497;BME280;64074;47.540;19.072;2023-02-28T17:54:59;101657.81;;;6.50;51.06
75497;BME280;64074;47.540;19.072;2023-02-28T17:58:02;101662.63;;;6.36;51.55
75497;BME280;64074;47.540;19.072;2023-02-28T18:01:06;101659.69;;;6.37;51.43
75497;BME280;64074;47.540;19.072;2023-02-28T18:04:09;101671.53;;;6.48;50.60
75497;BME280;64074;47.540;19.072;2023-02-28T18:07:12;101669.88;;;6.35;51.35
75497;BME280;64074;47.540;19.072;2023-02-28T18:10:17;101668.59;;;6.73;51.12
75497;BME280;64074;47.540;19.072;2023-02-28T18:13:23;101667.19;;;6.70;50.79
75497;BME280;64074;47.540;19.072;2023-02-28T18:16:26;101676.53;;;6.68;50.83
75497;BME280;64074;47.540;19.072;2023-02-28T18:19:31;101668.69;;;6.78;50.38
75497;BME280;64074;47.540;19.072;2023-02-28T18:22:35;101675.91;;;7.01;49.90
75497;BME280;64074;47.540;19.072;2023-02-28T18:25:39;101670.81;;;7.16;49.27
75497;BME280;64074;47.540;19.072;2023-02-28T18:28:44;101674.22;;;6.60;50.87
75497;BME280;64074;47.540;19.072;2023-02-28T18:31:48;101675.63;;;6.51;51.22
75497;BME280;64074;47.540;19.072;2023-02-28T18:34:53;101668.69;;;6.43;50.88
75497;BME280;64074;47.540;19.072;2023-02-28T18:37:56;101682.16;;;6.78;50.45
75497;BME280;64074;47.540;19.072;2023-02-28T18:41:02;101679.44;;;6.90;49.70
75497;BME280;64074;47.540;19.072;2023-02-28T18:44:05;101671.63;;;6.76;50.33
75497;BME280;64074;47.540;19.072;2023-02-28T18:47:20;101680.19;;;6.62;50.53
75497;BME280;64074;47.540;19.072;2023-02-28T18:50:26;101677.72;;;6.72;50.17
75497;BME280;64074;47.540;19.072;2023-02-28T18:53:29;101677.72;;;6.60;50.94
75497;BME280;64074;47.540;19.072;2023-02-28T18:56:31;101681.84;;;6.51;51.05
75497;BME280;64074;47.540;19.072;2023-02-28T18:59:35;101673.63;;;6.34;51.31
75497;BME280;64074;47.540;19.072;2023-02-28T19:02:38;101677.63;;;6.55;50.63
75497;BME280;64074;47.540;19.072;2023-02-28T19:05:42;101676.78;;;6.55;50.88
75497;BME280;64074;47.540;19.072;2023-02-28T19:08:46;101674.91;;;6.67;50.26
75497;BME280;64074;47.540;19.072;2023-02-28T19:11:51;101673.50;;;6.76;50.02
75497;BME280;64074;47.540;19.072;2023-02-28T19:14:54;101668.72;;;6.55;50.55
75497;BME280;64074;47.540;19.072;2023-02-28T19:17:56;101677.59;;;6.67;49.88
75497;BME280;64074;47.540;19.072;2023-02-28T19:20:59;101680.59;;;6.94;49.92
75497;BME280;64074;47.540;19.072;2023-02-28T19:24:03;101673.94;;;6.96;49.88
75497;BME280;64074;47.540;19.072;2023-02-28T19:27:06;101675.22;;;6.82;49.56
75497;BME280;64074;47.540;19.072;2023-02-28T19:30:09;101674.50;;;6.98;49.80
75497;BME280;64074;47.540;19.072;2023-02-28T19:33:16;101675.13;;;7.17;49.19
75497;BME280;64074;47.540;19.072;2023-02-28T19:36:20;101672.09;;;7.14;49.65
75497;BME280;64074;47.540;19.072;2023-02-28T19:39:24;101673.16;;;7.13;49.84
75497;BME280;64074;47.540;19.072;2023-02-28T19:42:27;101669.41;;;7.14;49.43
75497;BME280;64074;47.540;19.072;2023-02-28T19:45:36;101677.53;;;7.02;49.63
75497;BME280;64074;47.540;19.072;2023-02-28T19:48:40;101675.31;;;6.99;49.50
75497;BME280;64074;47.540;19.072;2023-02-28T19:51:44;101682.34;;;7.00;49.58
75497;BME280;64074;47.540;19.072;2023-02-28T19:54:47;101678.13;;;6.92;49.28
75497;BME280;64074;47.540;19.072;2023-02-28T19:57:50;101678.28;;;6.86;49.55
75497;BME280;64074;47.540;19.072;2023-02-28T20:00:55;101675.84;;;7.13;49.39
75497;BME280;64074;47.540;19.072;2023-02-28T20:03:58;101671.38;;;7.18;49.53
75497;BME280;64074;47.540;19.072;2023-02-28T20:07:01;101666.69;;;7.25;49.37
75497;BME280;64074;47.540;19.072;2023-02-28T20:10:05;101683.72;;;7.14;49.72
75497;BME280;64074;47.540;19.072;2023-02-28T20:13:11;101675.13;;;7.17;49.92